createdAt,value
2022-07-30T10:30:08.643Z,99.80
2022-07-30T10:31:08.634Z,98.83
2022-07-30T10:32:09.468Z,99.99
2022-07-30T10:33:08.567Z,99.99
2022-07-30T10:34:08.541Z,99.99
2022-07-30T10:35:08.519Z,99.99
2022-07-30T10:36:08.888Z,99.99
2022-07-30T10:37:08.480Z,99.99
2022-07-30T10:38:08.454Z,99.99
2022-07-30T10:39:08.434Z,99.99
2022-07-30T10:40:08.412Z,99.99
2022-07-30T10:41:08.395Z,99.07
2022-07-30T10:42:08.375Z,99.99
2022-07-30T10:43:08.355Z,99.99
2022-07-30T10:44:08.335Z,99.99
2022-07-30T10:45:08.317Z,99.99
2022-07-30T10:46:10.705Z,98.93
2022-07-30T10:47:08.444Z,99.95
2022-07-30T10:48:08.260Z,99.99
2022-07-30T10:49:17.526Z,96.80
2022-07-30T10:50:11.629Z,95.97
2022-07-30T10:51:08.208Z,98.00
2022-07-30T10:52:08.194Z,99.99
2022-07-30T10:53:08.171Z,99.99
2022-07-30T10:54:08.153Z,99.99
2022-07-30T10:55:08.136Z,99.99
2022-07-30T10:56:08.117Z,99.99
2022-07-30T10:57:08.101Z,99.99
2022-07-30T10:58:08.089Z,99.99
2022-07-30T10:59:08.202Z,99.99
2022-07-30T11:00:08.052Z,99.99
2022-07-30T11:01:18.470Z,99.99
2022-07-30T11:02:08.183Z,99.99
2022-07-30T11:03:15.014Z,99.99
2022-07-30T11:04:07.977Z,99.99
2022-07-30T11:05:07.962Z,99.99
2022-07-30T11:06:07.941Z,99.99
2022-07-30T11:07:07.926Z,99.99
2022-07-30T11:08:07.906Z,99.99
2022-07-30T11:09:07.891Z,99.99
2022-07-30T11:10:09.579Z,99.99
2022-07-30T11:11:19.789Z,99.99
2022-07-30T11:12:07.839Z,94.13
2022-07-30T11:13:07.825Z,95.87
2022-07-30T11:14:07.804Z,92.63
2022-07-30T11:15:18.814Z,97.71
2022-07-30T11:16:07.772Z,96.06
2022-07-30T11:17:07.763Z,96.55
2022-07-30T11:18:11.367Z,93.35
2022-07-30T11:19:56.793Z,97.13
2022-07-30T11:20:11.900Z,98.15
2022-07-30T11:21:07.689Z,99.65
2022-07-30T11:22:07.669Z,99.99
2022-07-30T11:23:07.653Z,94.60
2022-07-30T11:24:07.635Z,96.55
2022-07-30T11:25:12.822Z,96.59
2022-07-30T11:26:07.658Z,94.21
2022-07-30T11:27:07.587Z,90.67
2022-07-30T11:28:07.570Z,89.07
2022-07-30T11:29:07.555Z,88.01
2022-07-30T11:30:07.539Z,86.22
2022-07-30T11:31:10.271Z,86.95
2022-07-30T11:32:07.792Z,87.44
2022-07-30T11:33:07.490Z,87.30
2022-07-30T11:34:07.473Z,86.43
2022-07-30T11:35:07.463Z,87.10
2022-07-30T11:36:07.442Z,86.72
2022-07-30T11:37:18.270Z,88.27
2022-07-30T11:38:07.417Z,89.92
2022-07-30T11:39:07.722Z,88.71
2022-07-30T11:40:07.378Z,89.58
2022-07-30T11:41:07.360Z,88.90
2022-07-30T11:42:07.343Z,91.42
2022-07-30T11:43:07.329Z,93.74
2022-07-30T11:44:07.310Z,91.81
2022-07-30T11:45:07.343Z,93.55
2022-07-30T11:46:07.277Z,89.68
2022-07-30T11:47:07.261Z,88.85
2022-07-30T11:48:07.245Z,89.39
2022-07-30T11:49:07.290Z,90.06
2022-07-30T11:50:07.212Z,93.02
2022-07-30T11:51:07.201Z,93.02
2022-07-30T11:52:07.177Z,91.89
2022-07-30T11:53:07.161Z,90.30
2022-07-30T11:54:07.143Z,88.79
2022-07-30T11:55:07.129Z,88.70
2022-07-30T11:56:07.109Z,92.96
2022-07-30T11:57:07.096Z,88.70
2022-07-30T11:58:07.078Z,84.30
2022-07-30T11:59:07.061Z,85.55
2022-07-30T12:00:07.043Z,88.65
2022-07-30T12:01:09.538Z,91.27
2022-07-30T12:02:07.010Z,90.98
2022-07-30T12:03:06.996Z,94.71
2022-07-30T12:04:06.976Z,94.03
2022-07-30T12:05:06.961Z,93.45
2022-07-30T12:06:06.943Z,92.72
2022-07-30T12:07:06.928Z,92.43
2022-07-30T12:08:06.910Z,87.15
2022-07-30T12:09:06.895Z,89.96
2022-07-30T12:10:06.878Z,88.41
2022-07-30T12:11:06.862Z,86.43
2022-07-30T12:12:06.844Z,88.41
2022-07-30T12:13:07.950Z,86.62
2022-07-30T12:14:06.811Z,88.02
2022-07-30T12:15:06.796Z,89.67
2022-07-30T12:16:06.778Z,88.51
2022-07-30T12:17:06.764Z,84.34
2022-07-30T12:18:25.406Z,91.12
2022-07-30T12:19:06.731Z,87.01
2022-07-30T12:20:06.728Z,86.72
2022-07-30T12:21:06.696Z,87.30
2022-07-30T12:22:06.680Z,85.27
2022-07-30T12:23:06.664Z,85.07
2022-07-30T12:24:06.647Z,85.17
2022-07-30T12:25:06.631Z,86.09
2022-07-30T12:26:06.622Z,86.52
2022-07-30T12:27:06.764Z,84.10
2022-07-30T12:28:06.581Z,84.97
2022-07-30T12:29:06.634Z,85.07
2022-07-30T12:30:06.547Z,87.34
2022-07-30T12:31:06.532Z,87.19
2022-07-30T12:32:06.514Z,87.09
2022-07-30T12:33:06.500Z,83.35
2022-07-30T12:34:06.481Z,85.43
2022-07-30T12:35:06.465Z,82.32
2022-07-30T12:36:06.448Z,80.96
2022-07-30T12:37:06.433Z,85.57
2022-07-30T12:38:06.416Z,81.49
2022-07-30T12:39:06.402Z,78.28
2022-07-30T12:40:06.384Z,78.81
2022-07-30T12:41:06.369Z,82.40
2022-07-30T12:42:06.352Z,74.88
2022-07-30T12:43:06.338Z,81.53
2022-07-30T12:44:06.321Z,79.00
2022-07-30T12:45:06.307Z,78.85
2022-07-30T12:46:06.290Z,77.91
2022-07-30T12:47:06.809Z,77.43
2022-07-30T12:48:06.259Z,80.74
2022-07-30T12:49:21.191Z,70.55
2022-07-30T12:50:06.298Z,72.20
2022-07-30T12:51:06.875Z,77.55
2022-07-30T12:52:09.610Z,79.00
2022-07-30T12:53:06.184Z,80.76
2022-07-30T12:54:06.170Z,80.60
2022-07-30T12:55:06.153Z,81.48
2022-07-30T12:56:06.137Z,80.02
2022-07-30T12:57:06.742Z,84.20
2022-07-30T12:58:08.839Z,79.53
2022-07-30T12:59:06.093Z,81.96
2022-07-30T13:00:06.089Z,75.99
2022-07-30T13:01:06.185Z,76.83
2022-07-30T13:02:06.046Z,78.09
2022-07-30T13:03:06.032Z,81.74
2022-07-30T13:04:06.014Z,81.06
2022-07-30T13:05:11.483Z,81.26
2022-07-30T13:06:05.984Z,81.31
2022-07-30T13:07:05.970Z,75.65
2022-07-30T13:08:05.953Z,74.93
2022-07-30T13:09:05.938Z,74.84
2022-07-30T13:10:05.923Z,76.10
2022-07-30T13:11:05.907Z,77.65
2022-07-30T13:12:05.890Z,75.03
2022-07-30T13:13:05.875Z,77.16
2022-07-30T13:14:05.856Z,78.91
2022-07-30T13:15:05.842Z,78.42
2022-07-30T13:16:05.823Z,80.46
2022-07-30T13:17:06.370Z,81.58
2022-07-30T13:18:05.792Z,82.84
2022-07-30T13:19:05.776Z,80.80
2022-07-30T13:20:05.756Z,79.84
2022-07-30T13:21:05.741Z,79.16
2022-07-30T13:22:05.724Z,78.87
2022-07-30T13:23:05.709Z,78.33
2022-07-30T13:24:05.690Z,78.91
2022-07-30T13:25:05.676Z,79.88
2022-07-30T13:26:05.656Z,82.20
2022-07-30T13:27:05.951Z,81.43
2022-07-30T13:28:05.624Z,81.85
2022-07-30T13:29:05.608Z,85.25
2022-07-30T13:30:05.594Z,84.47
2022-07-30T13:31:05.573Z,83.99
2022-07-30T13:32:05.555Z,82.57
2022-07-30T13:33:05.540Z,81.08
2022-07-30T13:34:05.522Z,80.25
2022-07-30T13:35:05.508Z,76.85
2022-07-30T13:36:05.489Z,76.85
2022-07-30T13:37:05.667Z,75.01
2022-07-30T13:38:05.456Z,74.29
2022-07-30T13:39:05.441Z,75.07
2022-07-30T13:40:05.499Z,74.71
2022-07-30T13:41:05.413Z,73.94
2022-07-30T13:42:05.390Z,70.90
2022-07-30T13:43:05.375Z,72.19
2022-07-30T13:44:05.357Z,73.16
2022-07-30T13:45:05.344Z,71.94
2022-07-30T13:46:05.325Z,72.81
2022-07-30T13:47:05.478Z,71.55
2022-07-30T13:48:05.294Z,71.42
2022-07-30T13:49:05.372Z,71.51
2022-07-30T13:50:05.323Z,70.15
2022-07-30T13:51:05.245Z,70.25
2022-07-30T13:52:05.227Z,69.12
2022-07-30T13:53:05.213Z,68.05
2022-07-30T13:54:05.201Z,68.44
2022-07-30T13:55:05.181Z,68.63
2022-07-30T13:56:05.165Z,67.76
2022-07-30T13:57:05.295Z,68.25
2022-07-30T13:58:05.134Z,67.66
2022-07-30T13:59:05.119Z,68.93
2022-07-30T14:00:05.137Z,67.89
2022-07-30T14:01:05.129Z,68.18
2022-07-30T14:02:05.162Z,67.34
2022-07-30T14:03:05.058Z,66.63
2022-07-30T14:04:05.042Z,66.11
2022-07-30T14:05:05.028Z,65.07
2022-07-30T14:06:10.349Z,63.02
2022-07-30T14:07:05.319Z,62.73
2022-07-30T14:08:04.986Z,65.14
2022-07-30T14:09:04.976Z,66.53
2022-07-30T14:10:04.963Z,66.02
2022-07-30T14:11:04.955Z,66.47
2022-07-30T14:12:04.934Z,66.99
2022-07-30T14:13:04.924Z,66.31
2022-07-30T14:14:04.932Z,67.47
2022-07-30T14:15:04.899Z,68.90
2022-07-30T14:16:08.237Z,65.36
2022-07-30T14:17:05.149Z,68.65
2022-07-30T14:18:04.857Z,64.51
2022-07-30T14:19:04.846Z,66.53
2022-07-30T14:20:04.834Z,62.53
2022-07-30T14:21:04.824Z,60.31
2022-07-30T14:22:04.812Z,58.79
2022-07-30T14:23:04.803Z,61.91
2022-07-30T14:24:04.794Z,62.76
2022-07-30T14:25:04.788Z,59.96
2022-07-30T14:26:04.778Z,60.64
2022-07-30T14:27:05.415Z,60.35
2022-07-30T14:28:04.756Z,60.25
2022-07-30T14:29:04.750Z,62.76
2022-07-30T14:30:04.741Z,59.61
2022-07-30T14:31:04.735Z,59.94
2022-07-30T14:32:04.728Z,62.38
2022-07-30T14:33:04.981Z,65.46
2022-07-30T14:34:04.715Z,62.80
2022-07-30T14:35:04.711Z,62.29
2022-07-30T14:36:04.694Z,62.81
2022-07-30T14:37:05.227Z,65.20
2022-07-30T14:38:04.678Z,68.19
2022-07-30T14:39:04.697Z,71.17
2022-07-30T14:40:04.675Z,68.80
2022-07-30T14:41:04.662Z,66.17
2022-07-30T14:42:04.645Z,66.96
2022-07-30T14:43:04.636Z,63.93
2022-07-30T14:44:04.624Z,63.09
2022-07-30T14:45:04.614Z,63.21
2022-07-30T14:46:04.606Z,62.50
2022-07-30T14:47:05.005Z,61.86
2022-07-30T14:48:04.589Z,66.17
2022-07-30T14:49:04.628Z,61.76
2022-07-30T14:50:04.575Z,63.84
2022-07-30T14:51:15.857Z,64.90
2022-07-30T14:52:04.553Z,63.60
2022-07-30T14:53:04.543Z,58.11
2022-07-30T14:54:04.536Z,57.78
2022-07-30T14:55:04.527Z,60.84
2022-07-30T14:56:04.519Z,60.49
2022-07-30T14:57:04.990Z,64.16
2022-07-30T14:58:04.503Z,64.45
2022-07-30T14:59:04.494Z,63.38
2022-07-30T15:00:04.486Z,62.50
2022-07-30T15:01:16.442Z,62.28
2022-07-30T15:02:05.082Z,64.03
2022-07-30T15:03:04.459Z,64.72
2022-07-30T15:04:04.461Z,62.12
2022-07-30T15:05:04.445Z,64.32
2022-07-30T15:06:04.430Z,62.23
2022-07-30T15:07:04.422Z,60.02
2022-07-30T15:08:04.412Z,58.07
2022-07-30T15:09:04.404Z,58.37
2022-07-30T15:10:04.391Z,57.78
2022-07-30T15:11:06.051Z,58.86
2022-07-30T15:12:09.228Z,62.39
2022-07-30T15:13:04.362Z,61.93
2022-07-30T15:14:04.352Z,56.99
2022-07-30T15:15:04.342Z,56.86
2022-07-30T15:16:04.332Z,59.99
2022-07-30T15:17:04.699Z,57.92
2022-07-30T15:18:04.312Z,61.14
2022-07-30T15:19:04.302Z,60.88
2022-07-30T15:20:04.292Z,60.34
2022-07-30T15:21:04.281Z,61.51
2022-07-30T15:22:04.574Z,61.44
2022-07-30T15:23:04.260Z,61.38
2022-07-30T15:24:04.249Z,63.23
2022-07-30T15:25:04.240Z,62.84
2022-07-30T15:26:04.234Z,63.29
2022-07-30T15:27:04.213Z,63.45
2022-07-30T15:28:04.203Z,65.69
2022-07-30T15:29:04.189Z,67.57
2022-07-30T15:30:04.194Z,67.18
2022-07-30T15:31:04.165Z,67.57
2022-07-30T15:32:04.561Z,65.82
2022-07-30T15:33:04.140Z,63.84
2022-07-30T15:34:04.128Z,65.01
2022-07-30T15:35:04.114Z,63.52
2022-07-30T15:36:04.107Z,65.59
2022-07-30T15:37:04.087Z,66.69
2022-07-30T15:38:04.076Z,64.62
2022-07-30T15:39:04.061Z,65.33
2022-07-30T15:40:04.049Z,66.14
2022-07-30T15:41:04.046Z,65.85
2022-07-30T15:42:04.317Z,62.23
2022-07-30T15:43:05.074Z,56.72
2022-07-30T15:44:03.998Z,57.28
2022-07-30T15:45:18.879Z,58.69
2022-07-30T15:46:03.973Z,61.25
2022-07-30T15:47:03.959Z,61.55
2022-07-30T15:48:03.947Z,61.30
2022-07-30T15:49:03.999Z,63.31
2022-07-30T15:50:03.922Z,60.36
2022-07-30T15:51:03.909Z,59.12
2022-07-30T15:52:04.239Z,56.43
2022-07-30T15:53:09.322Z,56.62
2022-07-30T15:54:03.872Z,56.72
2022-07-30T15:55:03.907Z,57.09
2022-07-30T15:56:03.846Z,57.06
2022-07-30T15:57:03.833Z,57.49
2022-07-30T15:58:03.821Z,57.68
2022-07-30T15:59:03.811Z,57.00
2022-07-30T16:00:03.795Z,56.87
2022-07-30T16:01:03.887Z,58.31
2022-07-30T16:02:04.121Z,60.83
2022-07-30T16:03:03.755Z,59.28
2022-07-30T16:04:03.742Z,59.31
2022-07-30T16:05:03.727Z,59.31
2022-07-30T16:06:03.715Z,58.49
2022-07-30T16:07:03.701Z,57.74
2022-07-30T16:08:03.696Z,57.15
2022-07-30T16:09:03.674Z,56.45
2022-07-30T16:10:03.660Z,57.71
2022-07-30T16:11:03.644Z,59.56
2022-07-30T16:12:03.959Z,58.46
2022-07-30T16:13:03.616Z,58.82
2022-07-30T16:14:03.603Z,60.77
2022-07-30T16:15:03.587Z,61.02
2022-07-30T16:16:03.574Z,60.93
2022-07-30T16:17:03.584Z,61.09
2022-07-30T16:18:03.545Z,62.16
2022-07-30T16:19:03.533Z,62.16
2022-07-30T16:20:03.516Z,62.07
2022-07-30T16:21:03.507Z,62.74
2022-07-30T16:22:03.976Z,63.75
2022-07-30T16:23:03.471Z,63.65
2022-07-30T16:24:03.456Z,63.00
2022-07-30T16:25:03.450Z,63.06
2022-07-30T16:26:03.427Z,62.41
2022-07-30T16:27:03.412Z,60.46
2022-07-30T16:28:03.397Z,61.40
2022-07-30T16:29:03.381Z,59.87
2022-07-30T16:30:03.371Z,59.87
2022-07-30T16:31:03.353Z,58.84
2022-07-30T16:32:03.732Z,61.47
2022-07-30T16:33:03.322Z,64.13
2022-07-30T16:34:03.329Z,62.08
2022-07-30T16:35:03.293Z,62.35
2022-07-30T16:36:03.283Z,62.02
2022-07-30T16:37:03.858Z,63.65
2022-07-30T16:38:03.251Z,61.99
2022-07-30T16:39:03.236Z,62.06
2022-07-30T16:40:03.221Z,63.23
2022-07-30T16:41:03.207Z,63.06
2022-07-30T16:42:03.579Z,63.26
2022-07-30T16:43:03.181Z,63.97
2022-07-30T16:44:03.165Z,63.97
2022-07-30T16:45:03.151Z,62.96
2022-07-30T16:46:03.138Z,62.79
2022-07-30T16:47:03.128Z,62.38
2022-07-30T16:48:03.112Z,63.51
2022-07-30T16:49:03.135Z,64.72
2022-07-30T16:50:03.085Z,66.08
2022-07-30T16:51:03.072Z,66.89
2022-07-30T16:52:03.364Z,64.84
2022-07-30T16:53:03.044Z,65.82
2022-07-30T16:54:03.036Z,65.75
2022-07-30T16:55:03.019Z,66.37
2022-07-30T16:56:03.006Z,66.96
2022-07-30T16:57:03.961Z,67.05
2022-07-30T16:58:02.981Z,67.35
2022-07-30T16:59:02.968Z,67.41
2022-07-30T17:00:02.956Z,70.85
2022-07-30T17:01:03.027Z,71.33
2022-07-30T17:02:03.297Z,69.00
2022-07-30T17:03:02.915Z,66.89
2022-07-30T17:04:02.902Z,67.12
2022-07-30T17:05:02.889Z,66.56
2022-07-30T17:06:02.876Z,67.35
2022-07-30T17:07:02.862Z,68.12
2022-07-30T17:08:02.850Z,69.87
2022-07-30T17:09:02.835Z,69.48
2022-07-30T17:10:02.826Z,68.15
2022-07-30T17:11:02.808Z,70.32
2022-07-30T17:12:03.103Z,68.99
2022-07-30T17:13:02.781Z,72.04
2022-07-30T17:14:02.805Z,72.24
2022-07-30T17:15:02.754Z,73.11
2022-07-30T17:16:02.740Z,73.05
2022-07-30T17:17:02.726Z,70.68
2022-07-30T17:18:02.713Z,73.15
2022-07-30T17:19:09.402Z,72.08
2022-07-30T17:20:02.687Z,68.96
2022-07-30T17:21:02.675Z,68.25
2022-07-30T17:22:02.945Z,71.11
2022-07-30T17:23:02.646Z,70.13
2022-07-30T17:24:02.629Z,69.48
2022-07-30T17:25:02.614Z,70.65
2022-07-30T17:26:02.602Z,74.16
2022-07-30T17:27:02.589Z,71.04
2022-07-30T17:28:02.573Z,69.39
2022-07-30T17:29:02.558Z,70.56
2022-07-30T17:30:02.549Z,68.55
2022-07-30T17:31:02.530Z,68.74
2022-07-30T17:32:02.811Z,69.10
2022-07-30T17:33:02.502Z,70.75
2022-07-30T17:34:02.489Z,70.85
2022-07-30T17:35:02.479Z,71.92
2022-07-30T17:36:02.462Z,69.17
2022-07-30T17:37:02.445Z,68.32
2022-07-30T17:38:02.431Z,68.32
2022-07-30T17:39:02.420Z,68.23
2022-07-30T17:40:29.626Z,68.77
2022-07-30T17:41:02.386Z,68.29
2022-07-30T17:42:02.851Z,68.26
2022-07-30T17:43:02.358Z,69.42
2022-07-30T17:44:02.343Z,69.87
2022-07-30T17:45:02.327Z,69.71
2022-07-30T17:46:02.314Z,69.65
2022-07-30T17:47:02.298Z,68.84
2022-07-30T17:48:02.348Z,68.02
2022-07-30T17:49:02.301Z,68.51
2022-07-30T17:50:02.255Z,70.56
2022-07-30T17:51:02.243Z,72.80
2022-07-30T17:52:02.530Z,70.13
2022-07-30T17:53:03.684Z,68.35
2022-07-30T17:54:02.195Z,71.75
2022-07-30T17:55:02.180Z,69.22
2022-07-30T17:56:02.165Z,67.67
2022-07-30T17:57:02.149Z,67.89
2022-07-30T17:58:02.136Z,66.53
2022-07-30T17:59:02.120Z,65.72
2022-07-30T18:00:02.105Z,66.05
2022-07-30T18:01:02.160Z,67.11
2022-07-30T18:02:02.403Z,66.05
2022-07-30T18:03:02.059Z,65.95
2022-07-30T18:04:02.047Z,65.47
2022-07-30T18:05:02.029Z,64.88
2022-07-30T18:06:02.013Z,64.95
2022-07-30T18:07:01.998Z,64.17
2022-07-30T18:08:01.983Z,64.85
2022-07-30T18:09:01.964Z,64.82
2022-07-30T18:10:01.954Z,65.01
2022-07-30T18:11:01.933Z,65.59
2022-07-30T18:12:02.230Z,65.59
2022-07-30T18:13:26.139Z,65.69
2022-07-30T18:14:01.886Z,66.76
2022-07-30T18:15:01.870Z,66.17
2022-07-30T18:16:01.855Z,66.76
2022-07-30T18:17:01.844Z,66.56
2022-07-30T18:18:01.834Z,66.86
2022-07-30T18:19:01.807Z,66.66
2022-07-30T18:20:01.791Z,66.95
2022-07-30T18:21:01.775Z,67.60
2022-07-30T18:22:03.088Z,67.34
2022-07-30T18:23:01.738Z,68.66
2022-07-30T18:24:01.722Z,68.57
2022-07-30T18:25:01.703Z,69.83
2022-07-30T18:26:01.707Z,68.76
2022-07-30T18:27:01.680Z,69.24
2022-07-30T18:28:01.655Z,69.99
2022-07-30T18:29:01.637Z,68.82
2022-07-30T18:30:01.621Z,69.02
2022-07-30T18:31:01.604Z,70.28
2022-07-30T18:32:02.020Z,71.25
2022-07-30T18:33:01.582Z,72.31
2022-07-30T18:34:01.556Z,71.64
2022-07-30T18:35:01.547Z,71.70
2022-07-30T18:36:01.533Z,71.41
2022-07-30T18:37:01.502Z,71.99
2022-07-30T18:38:01.487Z,71.41
2022-07-30T18:39:01.469Z,71.70
2022-07-30T18:40:01.452Z,71.31
2022-07-30T18:41:01.434Z,71.99
2022-07-30T18:42:01.820Z,72.57
2022-07-30T18:43:01.400Z,71.56
2022-07-30T18:44:01.383Z,73.69
2022-07-30T18:45:01.366Z,73.99
2022-07-30T18:46:01.350Z,73.11
2022-07-30T18:47:01.333Z,75.92
2022-07-30T18:48:01.315Z,75.44
2022-07-30T18:49:15.472Z,75.63
2022-07-30T18:50:01.387Z,73.99
2022-07-30T18:51:01.263Z,73.60
2022-07-30T18:52:01.569Z,75.34
2022-07-30T18:53:01.229Z,74.96
2022-07-30T18:54:01.212Z,74.38
2022-07-30T18:55:01.193Z,75.83
2022-07-30T18:56:01.176Z,77.47
2022-07-30T18:57:01.162Z,77.53
2022-07-30T18:58:01.141Z,76.66
2022-07-30T18:59:01.122Z,78.21
2022-07-30T19:00:01.106Z,78.21
2022-07-30T19:01:01.162Z,79.62
2022-07-30T19:02:01.514Z,77.50
2022-07-30T19:03:01.056Z,77.88
2022-07-30T19:04:01.033Z,77.98
2022-07-30T19:05:01.017Z,78.66
2022-07-30T19:06:00.998Z,77.88
2022-07-30T19:07:00.981Z,79.04
2022-07-30T19:08:00.963Z,80.30
2022-07-30T19:09:00.946Z,79.91
2022-07-30T19:10:00.926Z,80.20
2022-07-30T19:11:00.911Z,80.40
2022-07-30T19:12:01.244Z,81.17
2022-07-30T19:13:00.873Z,82.33
2022-07-30T19:14:00.856Z,81.95
2022-07-30T19:15:00.837Z,82.04
2022-07-30T19:16:00.817Z,81.56
2022-07-30T19:17:00.801Z,83.06
2022-07-30T19:18:00.784Z,85.19
2022-07-30T19:19:00.764Z,85.29
2022-07-30T19:20:00.758Z,85.77
2022-07-30T19:21:00.729Z,86.16
2022-07-30T19:22:01.126Z,86.83
2022-07-30T19:23:00.692Z,87.66
2022-07-30T19:24:00.675Z,88.05
2022-07-30T19:25:00.660Z,87.85
2022-07-30T19:26:00.636Z,88.24
2022-07-30T19:27:00.619Z,88.15
2022-07-30T19:28:00.600Z,89.69
2022-07-30T19:29:00.583Z,90.33
2022-07-30T19:30:00.562Z,90.37
2022-07-30T19:31:00.545Z,90.81
2022-07-30T19:32:01.082Z,91.67
2022-07-30T19:33:00.508Z,92.65
2022-07-30T19:34:00.492Z,92.35
2022-07-30T19:35:00.471Z,92.55
2022-07-30T19:36:00.451Z,94.29
2022-07-30T19:37:00.435Z,94.09
2022-07-30T19:38:00.418Z,94.92
2022-07-30T19:39:03.266Z,95.78
2022-07-30T19:40:06.128Z,96.08
2022-07-30T19:41:00.359Z,97.04
2022-07-30T19:42:00.339Z,98.10
2022-07-30T19:43:00.322Z,98.58
2022-07-30T19:44:00.308Z,97.33
2022-07-30T19:45:01.202Z,97.24
2022-07-30T19:46:00.265Z,96.89
2022-07-30T19:47:00.248Z,97.86
2022-07-30T19:48:00.228Z,97.04
2022-07-30T19:49:00.262Z,97.14
2022-07-30T19:50:00.218Z,98.63
2022-07-30T19:51:00.794Z,99.31
2022-07-30T19:52:22.377Z,98.05
2022-07-30T19:53:00.133Z,99.11
2022-07-30T19:54:00.114Z,99.99
2022-07-30T19:55:00.097Z,99.60
2022-07-30T19:56:00.079Z,99.31
2022-07-30T19:57:00.065Z,99.99
2022-07-30T19:58:00.039Z,99.99
2022-07-30T19:59:00.021Z,99.99
2022-07-30T20:00:03.970Z,99.99
2022-07-30T20:00:59.981Z,99.99
2022-07-30T20:01:59.962Z,99.99
2022-07-30T20:02:59.997Z,99.99
2022-07-30T20:04:01.138Z,99.99
2022-07-30T20:04:59.905Z,99.99
2022-07-30T20:06:00.003Z,99.99
2022-07-30T20:06:59.868Z,99.99
2022-07-30T20:07:59.847Z,99.99
2022-07-30T20:08:59.830Z,99.99
2022-07-30T20:09:59.809Z,99.99
2022-07-30T20:10:59.791Z,99.99
2022-07-30T20:12:00.076Z,99.99
2022-07-30T20:12:59.754Z,99.99
2022-07-30T20:13:59.731Z,99.99
2022-07-30T20:14:59.714Z,99.99
2022-07-30T20:15:59.693Z,99.99
2022-07-30T20:17:02.450Z,99.99
2022-07-30T20:17:59.654Z,99.99
2022-07-30T20:18:59.636Z,99.99
2022-07-30T20:19:59.642Z,99.99
2022-07-30T20:20:59.600Z,99.99
2022-07-30T20:21:59.577Z,99.99
2022-07-30T20:22:59.558Z,99.99
2022-07-30T20:23:59.537Z,99.99
2022-07-30T20:24:59.522Z,99.99
2022-07-30T20:25:59.501Z,99.99
2022-07-30T20:26:59.482Z,99.99
2022-07-30T20:27:59.461Z,99.99
2022-07-30T20:28:59.441Z,99.99
2022-07-30T20:29:59.421Z,99.99
2022-07-30T20:31:00.418Z,99.99
2022-07-30T20:31:59.382Z,99.99
2022-07-30T20:32:59.368Z,99.99
2022-07-30T20:33:59.343Z,99.99
2022-07-30T20:34:59.325Z,99.99
2022-07-30T20:35:59.303Z,99.99
2022-07-30T20:36:59.284Z,99.99
2022-07-30T20:37:59.265Z,99.99
2022-07-30T20:38:59.246Z,99.99
2022-07-30T20:39:59.225Z,99.99
2022-07-30T20:40:59.207Z,99.99
2022-07-30T20:41:59.186Z,99.99
2022-07-30T20:43:00.018Z,99.99
2022-07-30T20:43:59.148Z,99.99
2022-07-30T20:44:59.127Z,99.99
2022-07-30T20:45:59.108Z,99.99
2022-07-30T20:46:59.775Z,99.99
2022-07-30T20:47:59.068Z,99.99
2022-07-30T20:48:59.107Z,99.99
2022-07-30T20:49:59.028Z,99.99
2022-07-30T20:50:59.008Z,99.99
2022-07-30T20:51:58.987Z,99.99
2022-07-30T20:52:58.979Z,99.99
2022-07-30T20:53:59.241Z,99.99
2022-07-30T20:54:58.930Z,99.99
2022-07-30T20:55:58.912Z,99.99
2022-07-30T20:56:58.889Z,99.99
2022-07-30T20:58:07.958Z,99.99
2022-07-30T20:58:58.850Z,99.99
2022-07-30T20:59:58.830Z,99.99
2022-07-30T21:00:58.810Z,99.99
2022-07-30T21:01:58.791Z,98.82
2022-07-30T21:02:58.771Z,99.99
2022-07-30T21:03:58.749Z,99.99
2022-07-30T21:04:59.886Z,99.99
2022-07-30T21:05:58.711Z,98.87
2022-07-30T21:06:58.691Z,98.97
2022-07-30T21:07:58.672Z,98.20
2022-07-30T21:08:58.652Z,98.49
2022-07-30T21:09:58.630Z,98.00
2022-07-30T21:11:00.197Z,98.29
2022-07-30T21:11:58.589Z,98.29
2022-07-30T21:13:03.642Z,98.49
2022-07-30T21:13:58.551Z,98.10
2022-07-30T21:14:58.532Z,96.46
2022-07-30T21:16:02.628Z,96.94
2022-07-30T21:16:58.491Z,98.20
2022-07-30T21:17:58.472Z,98.77
2022-07-30T21:18:58.454Z,99.26
2022-07-30T21:19:58.430Z,98.00
2022-07-30T21:20:58.411Z,97.24
2022-07-30T21:21:58.392Z,98.29
2022-07-30T21:22:58.372Z,98.58
2022-07-30T21:23:58.350Z,98.20
2022-07-30T21:24:58.331Z,98.54
2022-07-30T21:26:01.566Z,98.58
2022-07-30T21:26:58.291Z,99.26
2022-07-30T21:27:58.270Z,99.11
2022-07-30T21:28:58.251Z,99.07
2022-07-30T21:29:58.233Z,99.21
2022-07-30T21:30:58.214Z,99.02
2022-07-30T21:32:09.601Z,99.21
2022-07-30T21:32:58.172Z,99.02
2022-07-30T21:33:58.151Z,99.79
2022-07-30T21:34:58.132Z,99.50
2022-07-30T21:35:58.111Z,99.60
2022-07-30T21:36:58.093Z,99.69
2022-07-30T21:37:58.082Z,99.07
2022-07-30T21:38:58.053Z,99.11
2022-07-30T21:39:58.032Z,99.21
2022-07-30T21:40:58.016Z,99.21
2022-07-30T21:41:57.992Z,98.82
2022-07-30T21:42:57.974Z,99.16
2022-07-30T21:43:57.952Z,99.21
2022-07-30T21:44:57.934Z,99.11
2022-07-30T21:45:57.915Z,99.99
2022-07-30T21:46:57.894Z,99.99
2022-07-30T21:47:57.872Z,99.99
2022-07-30T21:48:59.354Z,99.60
2022-07-30T21:49:57.836Z,99.60
2022-07-30T21:50:57.815Z,98.82
2022-07-30T21:51:57.794Z,99.50
2022-07-30T21:52:57.775Z,99.98
2022-07-30T21:53:58.005Z,99.50
2022-07-30T21:54:57.735Z,99.11
2022-07-30T21:55:57.714Z,98.92
2022-07-30T21:56:58.360Z,98.73
2022-07-30T21:57:57.676Z,98.15
2022-07-30T21:58:57.657Z,98.34
2022-07-30T21:59:57.636Z,98.82
2022-07-30T22:00:57.616Z,97.38
2022-07-30T22:01:57.596Z,98.05
2022-07-30T22:02:57.577Z,97.47
2022-07-30T22:04:02.894Z,98.25
2022-07-30T22:04:57.537Z,98.15
2022-07-30T22:05:57.520Z,96.99
2022-07-30T22:07:01.825Z,96.99
2022-07-30T22:07:57.478Z,96.80
2022-07-30T22:08:57.458Z,96.80
2022-07-30T22:09:57.437Z,96.51
2022-07-30T22:10:57.420Z,96.89
2022-07-30T22:12:01.489Z,96.70
2022-07-30T22:12:57.379Z,96.41
2022-07-30T22:13:57.362Z,95.26
2022-07-30T22:14:57.340Z,96.12
2022-07-30T22:15:57.321Z,95.26
2022-07-30T22:16:57.300Z,94.20
2022-07-30T22:17:58.735Z,95.06
2022-07-30T22:18:57.261Z,94.20
2022-07-30T22:19:57.239Z,94.39
2022-07-30T22:20:57.222Z,92.75
2022-07-30T22:21:57.202Z,93.23
2022-07-30T22:22:57.182Z,93.13
2022-07-30T22:23:58.520Z,93.13
2022-07-30T22:24:57.370Z,93.04
2022-07-30T22:26:00.344Z,93.04
2022-07-30T22:26:57.104Z,93.33
2022-07-30T22:27:57.281Z,91.78
2022-07-30T22:28:57.063Z,91.88
2022-07-30T22:29:57.046Z,91.40
2022-07-30T22:30:57.024Z,91.11
2022-07-30T22:31:57.003Z,91.78
2022-07-30T22:32:56.985Z,91.20
2022-07-30T22:33:56.966Z,91.20
2022-07-30T22:34:57.499Z,91.11
2022-07-30T22:35:56.923Z,90.92
2022-07-30T22:36:57.544Z,91.60
2022-07-30T22:37:56.884Z,90.72
2022-07-30T22:38:58.787Z,90.34
2022-07-30T22:39:56.844Z,89.95
2022-07-30T22:40:57.170Z,88.31
2022-07-30T22:41:56.805Z,88.70
2022-07-30T22:42:56.787Z,88.12
2022-07-30T22:43:56.765Z,85.71
2022-07-30T22:44:56.748Z,85.13
2022-07-30T22:45:56.726Z,84.94
2022-07-30T22:46:56.725Z,85.23
2022-07-30T22:47:56.686Z,85.77
2022-07-30T22:48:56.724Z,85.67
2022-07-30T22:49:56.651Z,85.57
2022-07-30T22:50:56.628Z,85.57
2022-07-30T22:52:05.096Z,83.36
2022-07-30T22:52:58.576Z,83.26
2022-07-30T22:54:10.559Z,83.36
2022-07-30T22:55:03.379Z,83.26
2022-07-30T22:55:56.529Z,83.26
2022-07-30T22:56:56.508Z,83.16
2022-07-30T22:57:56.487Z,82.49
2022-07-30T22:58:56.468Z,81.81
2022-07-30T22:59:58.005Z,81.81
2022-07-30T23:00:56.428Z,81.91
2022-07-30T23:01:56.408Z,80.85
2022-07-30T23:02:56.389Z,78.92
2022-07-30T23:03:57.392Z,78.83
2022-07-30T23:04:56.491Z,78.06
2022-07-30T23:05:57.204Z,75.99
2022-07-30T23:06:56.309Z,76.57
2022-07-30T23:07:56.287Z,75.51
2022-07-30T23:08:56.269Z,73.78
2022-07-30T23:09:56.249Z,73.58
2022-07-30T23:10:56.228Z,73.20
2022-07-30T23:11:56.206Z,73.30
2022-07-30T23:12:56.362Z,72.33
2022-07-30T23:13:56.168Z,72.91
2022-07-30T23:14:56.147Z,72.24
2022-07-30T23:15:56.126Z,72.63
2022-07-30T23:16:56.107Z,71.85
2022-07-30T23:17:56.088Z,72.43
2022-07-30T23:18:56.066Z,71.08
2022-07-30T23:19:56.048Z,70.47
2022-07-30T23:21:00.150Z,70.95
2022-07-30T23:21:56.005Z,70.56